sensor_id;sensor_type;location;lat;lon;timestamp;pressure;altitude;pressure_sealevel;temperature;humidity
72892;BME280;61032;50.782;6.818;2023-11-21T00:00:22;99944.22;;;10.58;85.70
72892;BME280;61032;50.782;6.818;2023-11-21T00:01:22;99947.53;;;10.64;85.44
72892;BME280;61032;50.782;6.818;2023-11-21T00:02:23;99943.41;;;10.70;85.45
72892;BME280;61032;50.782;6.818;2023-11-21T00:03:23;99955.09;;;10.67;85.12
72892;BME280;61032;50.782;6.818;2023-11-21T00:04:24;99948.44;;;10.68;84.99
72892;BME280;61032;50.782;6.818;2023-11-21T00:05:24;99949.25;;;10.68;85.41
72892;BME280;61032;50.782;6.818;2023-11-21T00:06:25;99946.97;;;10.71;85.73
72892;BME280;61032;50.782;6.818;2023-11-21T00:07:25;99947.63;;;10.67;85.40
72892;BME280;61032;50.782;6.818;2023-11-21T00:08:26;99948.44;;;10.68;85.35
72892;BME280;61032;50.782;6.818;2023-11-21T00:09:27;99949.94;;;10.65;86.02
72892;BME280;61032;50.782;6.818;2023-11-21T00:10:27;99949.13;;;10.65;86.03
72892;BME280;61032;50.782;6.818;2023-11-21T00:11:28;99952.34;;;10.67;86.17
72892;BME280;61032;50.782;6.818;2023-11-21T00:12:29;99948.91;;;10.70;85.77
72892;BME280;61032;50.782;6.818;2023-11-21T00:13:29;99948.56;;;10.72;85.49
72892;BME280;61032;50.782;6.818;2023-11-21T00:14:30;99951.09;;;10.77;85.63
72892;BME280;61032;50.782;6.818;2023-11-21T00:15:30;99949.81;;;10.74;85.57
72892;BME280;61032;50.782;6.818;2023-11-21T00:16:30;99957.28;;;10.74;85.63
72892;BME280;61032;50.782;6.818;2023-11-21T00:17:31;99947.41;;;10.73;85.95
72892;BME280;61032;50.782;6.818;2023-11-21T00:18:31;99950.50;;;10.71;86.14
72892;BME280;61032;50.782;6.818;2023-11-21T00:19:32;99951.88;;;10.77;85.66
72892;BME280;61032;50.782;6.818;2023-11-21T00:20:33;99942.94;;;10.68;85.83
72892;BME280;61032;50.782;6.818;2023-11-21T00:21:33;99959.56;;;10.72;85.60
72892;BME280;61032;50.782;6.818;2023-11-21T00:22:34;99955.66;;;10.73;85.93
72892;BME280;61032;50.782;6.818;2023-11-21T00:23:35;99952.00;;;10.68;85.70
72892;BME280;61032;50.782;6.818;2023-11-21T00:24:35;99944.88;;;10.67;85.74
72892;BME280;61032;50.782;6.818;2023-11-21T00:25:36;99953.25;;;10.71;85.81
72892;BME280;61032;50.782;6.818;2023-11-21T00:26:36;99956.69;;;10.68;86.22
72892;BME280;61032;50.782;6.818;2023-11-21T00:27:38;99948.91;;;10.70;85.88
72892;BME280;61032;50.782;6.818;2023-11-21T00:28:38;99952.13;;;10.72;86.24
72892;BME280;61032;50.782;6.818;2023-11-21T00:29:38;99954.19;;;10.75;86.90
72892;BME280;61032;50.782;6.818;2023-11-21T00:30:38;99951.09;;;10.77;86.14
72892;BME280;61032;50.782;6.818;2023-11-21T00:31:39;99959.69;;;10.75;86.35
72892;BME280;61032;50.782;6.818;2023-11-21T00:32:39;99960.13;;;10.77;86.18
72892;BME280;61032;50.782;6.818;2023-11-21T00:33:40;99957.47;;;10.81;85.41
72892;BME280;61032;50.782;6.818;2023-11-21T00:34:40;99959.00;;;10.78;85.63
72892;BME280;61032;50.782;6.818;2023-11-21T00:35:40;99956.00;;;10.71;86.28
72892;BME280;61032;50.782;6.818;2023-11-21T00:36:41;99967.00;;;10.71;85.94
72892;BME280;61032;50.782;6.818;2023-11-21T00:37:41;99959.56;;;10.72;86.48
72892;BME280;61032;50.782;6.818;2023-11-21T00:38:42;99961.16;;;10.73;85.85
72892;BME280;61032;50.782;6.818;2023-11-21T00:39:43;99968.25;;;10.74;86.00
72892;BME280;61032;50.782;6.818;2023-11-21T00:40:43;99960.81;;;10.74;86.15
72892;BME280;61032;50.782;6.818;2023-11-21T00:41:43;99958.06;;;10.74;86.03
72892;BME280;61032;50.782;6.818;2023-11-21T00:42:45;99965.19;;;10.75;85.99
72892;BME280;61032;50.782;6.818;2023-11-21T00:43:46;99966.53;;;10.81;85.79
72892;BME280;61032;50.782;6.818;2023-11-21T00:44:46;99962.19;;;10.80;85.47
72892;BME280;61032;50.782;6.818;2023-11-21T00:45:47;99970.06;;;10.82;85.50
72892;BME280;61032;50.782;6.818;2023-11-21T00:46:49;99966.31;;;10.74;85.62
72892;BME280;61032;50.782;6.818;2023-11-21T00:47:50;99970.22;;;10.73;86.22
72892;BME280;61032;50.782;6.818;2023-11-21T00:48:51;99968.59;;;10.72;86.29
72892;BME280;61032;50.782;6.818;2023-11-21T00:49:51;99970.22;;;10.73;86.10
72892;BME280;61032;50.782;6.818;2023-11-21T00:50:51;99971.00;;;10.74;85.96
72892;BME280;61032;50.782;6.818;2023-11-21T00:51:51;99968.59;;;10.72;86.10
72892;BME280;61032;50.782;6.818;2023-11-21T00:52:52;99972.03;;;10.69;86.25
72892;BME280;61032;50.782;6.818;2023-11-21T00:53:52;99967.69;;;10.68;86.67
72892;BME280;61032;50.782;6.818;2023-11-21T00:54:52;99968.59;;;10.72;86.64
72892;BME280;61032;50.782;6.818;2023-11-21T00:55:53;99969.88;;;10.75;86.40
72892;BME280;61032;50.782;6.818;2023-11-21T00:56:57;99972.97;;;10.73;86.45
72892;BME280;61032;50.782;6.818;2023-11-21T00:57:57;99977.66;;;10.73;86.69
72892;BME280;61032;50.782;6.818;2023-11-21T00:58:58;99972.84;;;10.70;86.62
72892;BME280;61032;50.782;6.818;2023-11-21T00:59:59;99973.75;;;10.74;86.43
72892;BME280;61032;50.782;6.818;2023-11-21T01:00:59;99977.66;;;10.73;86.50
72892;BME280;61032;50.782;6.818;2023-11-21T01:01:59;99980.06;;;10.74;86.38
72892;BME280;61032;50.782;6.818;2023-11-21T01:03:01;99980.88;;;10.75;86.77
72892;BME280;61032;50.782;6.818;2023-11-21T01:04:02;99980.19;;;10.78;86.75
72892;BME280;61032;50.782;6.818;2023-11-21T01:05:03;99979.47;;;10.81;86.61
72892;BME280;61032;50.782;6.818;2023-11-21T01:06:03;99985.09;;;10.84;86.58
72892;BME280;61032;50.782;6.818;2023-11-21T01:07:07;99989.91;;;10.87;86.20
72892;BME280;61032;50.782;6.818;2023-11-21T01:08:07;99986.00;;;10.88;85.97
72892;BME280;61032;50.782;6.818;2023-11-21T01:09:08;99989.44;;;10.85;86.01
72892;BME280;61032;50.782;6.818;2023-11-21T01:10:09;99985.09;;;10.84;85.68
72892;BME280;61032;50.782;6.818;2023-11-21T01:11:10;99984.41;;;10.87;85.98
72892;BME280;61032;50.782;6.818;2023-11-21T01:12:12;99986.34;;;10.87;85.62
72892;BME280;61032;50.782;6.818;2023-11-21T01:13:13;99986.34;;;10.87;85.93
72892;BME280;61032;50.782;6.818;2023-11-21T01:14:15;99992.44;;;10.80;86.12
72892;BME280;61032;50.782;6.818;2023-11-21T01:15:17;99986.81;;;10.77;86.38
72892;BME280;61032;50.782;6.818;2023-11-21T01:16:18;99995.19;;;10.80;86.51
72892;BME280;61032;50.782;6.818;2023-11-21T01:17:18;99990.59;;;10.72;86.16
72892;BME280;61032;50.782;6.818;2023-11-21T01:18:19;99993.13;;;10.77;86.51
72892;BME280;61032;50.782;6.818;2023-11-21T01:19:19;99990.13;;;10.82;86.83
72892;BME280;61032;50.782;6.818;2023-11-21T01:20:19;99996.78;;;10.81;86.57
72892;BME280;61032;50.782;6.818;2023-11-21T01:21:20;99990.47;;;10.81;86.32
72892;BME280;61032;50.782;6.818;2023-11-21T01:22:20;99991.53;;;10.76;86.32
72892;BME280;61032;50.782;6.818;2023-11-21T01:23:26;99998.16;;;10.75;86.40
72892;BME280;61032;50.782;6.818;2023-11-21T01:24:27;99993.81;;;10.74;86.49
72892;BME280;61032;50.782;6.818;2023-11-21T01:25:27;100000.56;;;10.77;86.22
72892;BME280;61032;50.782;6.818;2023-11-21T01:26:27;100000.00;;;10.71;86.61
72892;BME280;61032;50.782;6.818;2023-11-21T01:27:28;100001.59;;;10.72;86.44
72892;BME280;61032;50.782;6.818;2023-11-21T01:28:28;100005.72;;;10.78;86.43
72892;BME280;61032;50.782;6.818;2023-11-21T01:29:28;100000.69;;;10.80;85.86
72892;BME280;61032;50.782;6.818;2023-11-21T01:30:29;100006.63;;;10.82;86.24
72892;BME280;61032;50.782;6.818;2023-11-21T01:31:29;100014.19;;;10.85;86.08
72892;BME280;61032;50.782;6.818;2023-11-21T01:32:30;100013.97;;;10.90;85.39
72892;BME280;61032;50.782;6.818;2023-11-21T01:33:30;100004.91;;;10.90;85.33
72892;BME280;61032;50.782;6.818;2023-11-21T01:34:30;100004.69;;;10.95;85.24
72892;BME280;61032;50.782;6.818;2023-11-21T01:35:30;100004.13;;;10.89;84.96
72892;BME280;61032;50.782;6.818;2023-11-21T01:36:31;100002.16;;;10.90;85.15
72892;BME280;61032;50.782;6.818;2023-11-21T01:37:32;100014.78;;;10.91;84.87
72892;BME280;61032;50.782;6.818;2023-11-21T01:38:33;100010.75;;;10.88;85.44
72892;BME280;61032;50.782;6.818;2023-11-21T01:39:33;100009.63;;;10.89;85.30
72892;BME280;61032;50.782;6.818;2023-11-21T01:40:34;100010.28;;;10.86;85.30
72892;BME280;61032;50.782;6.818;2023-11-21T01:41:35;100019.00;;;10.88;85.38
72892;BME280;61032;50.782;6.818;2023-11-21T01:42:35;100018.66;;;10.90;85.65
72892;BME280;61032;50.782;6.818;2023-11-21T01:43:35;100019.47;;;10.90;85.33
72892;BME280;61032;50.782;6.818;2023-11-21T01:44:37;100011.69;;;10.92;85.21
72892;BME280;61032;50.782;6.818;2023-11-21T01:45:37;100018.09;;;10.84;85.10
72892;BME280;61032;50.782;6.818;2023-11-21T01:46:40;100016.94;;;10.85;85.94
72892;BME280;61032;50.782;6.818;2023-11-21T01:47:42;100011.91;;;10.87;85.49
72892;BME280;61032;50.782;6.818;2023-11-21T01:48:44;100017.63;;;10.82;85.54
72892;BME280;61032;50.782;6.818;2023-11-21T01:49:46;100022.69;;;10.80;86.18
72892;BME280;61032;50.782;6.818;2023-11-21T01:50:46;100016.47;;;10.83;85.95
72892;BME280;61032;50.782;6.818;2023-11-21T01:51:48;100023.59;;;10.84;86.07
72892;BME280;61032;50.782;6.818;2023-11-21T01:52:50;100023.69;;;10.88;85.88
72892;BME280;61032;50.782;6.818;2023-11-21T01:53:50;100026.13;;;10.89;85.52
72892;BME280;61032;50.782;6.818;2023-11-21T01:54:51;100023.25;;;10.86;85.91
72892;BME280;61032;50.782;6.818;2023-11-21T01:55:53;100019.34;;;10.87;85.67
72892;BME280;61032;50.782;6.818;2023-11-21T01:56:53;100023.59;;;10.84;85.84
72892;BME280;61032;50.782;6.818;2023-11-21T01:57:55;100017.28;;;10.84;85.53
72892;BME280;61032;50.782;6.818;2023-11-21T01:58:57;100021.09;;;10.79;85.86
72892;BME280;61032;50.782;6.818;2023-11-21T01:59:58;100021.88;;;10.80;85.74
72892;BME280;61032;50.782;6.818;2023-11-21T02:01:01;100028.41;;;10.87;85.49
72892;BME280;61032;50.782;6.818;2023-11-21T02:02:01;100026.00;;;10.86;85.47
72892;BME280;61032;50.782;6.818;2023-11-21T02:03:02;100026.69;;;10.83;85.28
72892;BME280;61032;50.782;6.818;2023-11-21T02:04:04;100028.19;;;10.80;85.80
72892;BME280;61032;50.782;6.818;2023-11-21T02:05:04;100021.09;;;10.79;85.73
72892;BME280;61032;50.782;6.818;2023-11-21T02:06:05;100024.72;;;10.83;85.66
72892;BME280;61032;50.782;6.818;2023-11-21T02:07:05;100024.84;;;10.87;85.01
72892;BME280;61032;50.782;6.818;2023-11-21T02:08:06;100026.13;;;10.89;84.77
72892;BME280;61032;50.782;6.818;2023-11-21T02:09:06;100034.81;;;10.91;84.76
72892;BME280;61032;50.782;6.818;2023-11-21T02:10:07;100030.47;;;10.90;85.14
72892;BME280;61032;50.782;6.818;2023-11-21T02:11:08;100039.41;;;10.87;84.67
72892;BME280;61032;50.782;6.818;2023-11-21T02:12:09;100038.47;;;10.83;85.10
72892;BME280;61032;50.782;6.818;2023-11-21T02:13:12;100038.59;;;10.87;84.65
72892;BME280;61032;50.782;6.818;2023-11-21T02:14:13;100044.44;;;10.85;84.51
72892;BME280;61032;50.782;6.818;2023-11-21T02:15:14;100038.72;;;10.90;84.70
72892;BME280;61032;50.782;6.818;2023-11-21T02:16:20;100046.63;;;10.92;84.65
72892;BME280;61032;50.782;6.818;2023-11-21T02:17:21;100041.94;;;10.92;84.60
72892;BME280;61032;50.782;6.818;2023-11-21T02:18:21;100041.69;;;10.85;84.49
72892;BME280;61032;50.782;6.818;2023-11-21T02:19:22;100048.66;;;10.83;84.83
72892;BME280;61032;50.782;6.818;2023-11-21T02:20:25;100051.09;;;10.84;84.81
72892;BME280;61032;50.782;6.818;2023-11-21T02:21:27;100047.44;;;10.92;84.72
72892;BME280;61032;50.782;6.818;2023-11-21T02:22:30;100047.31;;;10.89;84.10
72892;BME280;61032;50.782;6.818;2023-11-21T02:23:32;100049.03;;;10.93;83.89
72892;BME280;61032;50.782;6.818;2023-11-21T02:24:33;100050.06;;;10.89;83.90
72892;BME280;61032;50.782;6.818;2023-11-21T02:25:34;100042.38;;;10.82;83.82
72892;BME280;61032;50.782;6.818;2023-11-21T02:26:34;100052.47;;;10.90;84.66
72892;BME280;61032;50.782;6.818;2023-11-21T02:27:35;100056.69;;;10.88;85.03
72892;BME280;61032;50.782;6.818;2023-11-21T02:28:36;100061.88;;;10.89;84.35
72892;BME280;61032;50.782;6.818;2023-11-21T02:29:39;100063.00;;;10.88;84.56
72892;BME280;61032;50.782;6.818;2023-11-21T02:30:39;100065.28;;;10.86;84.17
72892;BME280;61032;50.782;6.818;2023-11-21T02:31:39;100070.34;;;10.84;84.40
72892;BME280;61032;50.782;6.818;2023-11-21T02:32:48;100065.88;;;10.80;84.50
72892;BME280;61032;50.782;6.818;2023-11-21T02:33:48;100069.66;;;10.75;84.42
72892;BME280;61032;50.782;6.818;2023-11-21T02:34:49;100060.13;;;10.73;84.46
72892;BME280;61032;50.782;6.818;2023-11-21T02:35:50;100069.41;;;10.68;85.02
72892;BME280;61032;50.782;6.818;2023-11-21T02:36:54;100067.91;;;10.71;85.09
72892;BME280;61032;50.782;6.818;2023-11-21T02:37:55;100067.78;;;10.67;85.22
72892;BME280;61032;50.782;6.818;2023-11-21T02:38:55;100070.78;;;10.74;84.64
72892;BME280;61032;50.782;6.818;2023-11-21T02:39:56;100064.03;;;10.72;84.78
72892;BME280;61032;50.782;6.818;2023-11-21T02:40:57;100069.41;;;10.68;84.70
72892;BME280;61032;50.782;6.818;2023-11-21T02:41:59;100069.63;;;10.63;84.78
72892;BME280;61032;50.782;6.818;2023-11-21T02:42:59;100067.53;;;10.60;85.55
72892;BME280;61032;50.782;6.818;2023-11-21T02:44:00;100064.47;;;10.61;85.60
72892;BME280;61032;50.782;6.818;2023-11-21T02:45:00;100074.31;;;10.62;85.32
72892;BME280;61032;50.782;6.818;2023-11-21T02:46:01;100074.31;;;10.62;85.37
72892;BME280;61032;50.782;6.818;2023-11-21T02:47:01;100068.34;;;10.60;85.50
72892;BME280;61032;50.782;6.818;2023-11-21T02:48:01;100072.28;;;10.59;85.35
72892;BME280;61032;50.782;6.818;2023-11-21T02:49:03;100072.16;;;10.56;85.68
72892;BME280;61032;50.782;6.818;2023-11-21T02:50:04;100067.13;;;10.58;85.39
72892;BME280;61032;50.782;6.818;2023-11-21T02:51:06;100062.41;;;10.58;85.12
72892;BME280;61032;50.782;6.818;2023-11-21T02:52:06;100068.34;;;10.60;85.07
72892;BME280;61032;50.782;6.818;2023-11-21T02:53:07;100070.75;;;10.62;85.17
72892;BME280;61032;50.782;6.818;2023-11-21T02:54:08;100069.28;;;10.64;84.86
72892;BME280;61032;50.782;6.818;2023-11-21T02:55:08;100069.94;;;10.61;84.98
72892;BME280;61032;50.782;6.818;2023-11-21T02:56:09;100074.91;;;10.68;84.86
72892;BME280;61032;50.782;6.818;2023-11-21T02:57:09;100078.31;;;10.65;84.95
72892;BME280;61032;50.782;6.818;2023-11-21T02:58:09;100072.38;;;10.63;84.91
72892;BME280;61032;50.782;6.818;2023-11-21T02:59:10;100073.03;;;10.60;84.56
72892;BME280;61032;50.782;6.818;2023-11-21T03:00:10;100072.28;;;10.59;84.98
72892;BME280;61032;50.782;6.818;2023-11-21T03:01:13;100069.63;;;10.63;84.89
72892;BME280;61032;50.782;6.818;2023-11-21T03:02:13;100069.16;;;10.61;85.39
72892;BME280;61032;50.782;6.818;2023-11-21T03:03:13;100075.34;;;10.58;85.23
72892;BME280;61032;50.782;6.818;2023-11-21T03:04:14;100072.28;;;10.59;84.76
72892;BME280;61032;50.782;6.818;2023-11-21T03:05:18;100075.44;;;10.61;85.14
72892;BME280;61032;50.782;6.818;2023-11-21T03:06:19;100078.53;;;10.60;84.60
72892;BME280;61032;50.782;6.818;2023-11-21T03:07:19;100077.31;;;10.57;84.92
72892;BME280;61032;50.782;6.818;2023-11-21T03:08:19;100073.28;;;10.55;84.74
72892;BME280;61032;50.782;6.818;2023-11-21T03:09:20;100076.50;;;10.57;84.64
72892;BME280;61032;50.782;6.818;2023-11-21T03:10:20;100074.56;;;10.57;85.00
72892;BME280;61032;50.782;6.818;2023-11-21T03:11:21;100075.69;;;10.56;85.00
72892;BME280;61032;50.782;6.818;2023-11-21T03:12:21;100079.47;;;10.52;84.88
72892;BME280;61032;50.782;6.818;2023-11-21T03:13:21;100073.63;;;10.53;85.19
72892;BME280;61032;50.782;6.818;2023-11-21T03:14:22;100070.53;;;10.55;84.76
72892;BME280;61032;50.782;6.818;2023-11-21T03:15:22;100071.69;;;10.54;85.23
72892;BME280;61032;50.782;6.818;2023-11-21T03:16:22;100073.75;;;10.57;84.85
72892;BME280;61032;50.782;6.818;2023-11-21T03:17:23;100076.25;;;10.62;84.07
72892;BME280;61032;50.782;6.818;2023-11-21T03:18:24;100080.38;;;10.56;84.47
72892;BME280;61032;50.782;6.818;2023-11-21T03:19:25;100077.63;;;10.56;84.32
72892;BME280;61032;50.782;6.818;2023-11-21T03:20:25;100085.28;;;10.50;84.86
72892;BME280;61032;50.782;6.818;2023-11-21T03:21:25;100078.06;;;10.46;84.69
72892;BME280;61032;50.782;6.818;2023-11-21T03:22:26;100079.19;;;10.45;85.44
72892;BME280;61032;50.782;6.818;2023-11-21T03:23:26;100085.84;;;10.44;85.09
72892;BME280;61032;50.782;6.818;2023-11-21T03:24:27;100088.59;;;10.44;85.23
72892;BME280;61032;50.782;6.818;2023-11-21T03:25:27;100089.72;;;10.43;85.12
72892;BME280;61032;50.782;6.818;2023-11-21T03:26:28;100088.81;;;10.39;85.29
72892;BME280;61032;50.782;6.818;2023-11-21T03:27:29;100095.91;;;10.40;85.18
72892;BME280;61032;50.782;6.818;2023-11-21T03:28:30;100095.56;;;10.41;85.23
72892;BME280;61032;50.782;6.818;2023-11-21T03:29:30;100097.16;;;10.42;85.33
72892;BME280;61032;50.782;6.818;2023-11-21T03:30:31;100098.22;;;10.38;85.20
72892;BME280;61032;50.782;6.818;2023-11-21T03:31:31;100095.91;;;10.40;85.51
72892;BME280;61032;50.782;6.818;2023-11-21T03:32:32;100094.09;;;10.44;85.60
72892;BME280;61032;50.782;6.818;2023-11-21T03:33:33;100105.66;;;10.49;85.48
72892;BME280;61032;50.782;6.818;2023-11-21T03:34:35;100101.78;;;10.50;85.08
72892;BME280;61032;50.782;6.818;2023-11-21T03:35:35;100109.00;;;10.55;84.72
72892;BME280;61032;50.782;6.818;2023-11-21T03:36:36;100105.00;;;10.52;84.98
72892;BME280;61032;50.782;6.818;2023-11-21T03:37:37;100109.69;;;10.52;84.92
72892;BME280;61032;50.782;6.818;2023-11-21T03:38:41;100110.03;;;10.50;84.77
72892;BME280;61032;50.782;6.818;2023-11-21T03:39:42;100112.31;;;10.48;85.26
72892;BME280;61032;50.782;6.818;2023-11-21T03:40:42;100115.25;;;10.43;85.24
72892;BME280;61032;50.782;6.818;2023-11-21T03:41:43;100115.59;;;10.42;85.13
72892;BME280;61032;50.782;6.818;2023-11-21T03:42:43;100109.63;;;10.40;85.09
72892;BME280;61032;50.782;6.818;2023-11-21T03:43:43;100117.53;;;10.41;85.14
72892;BME280;61032;50.782;6.818;2023-11-21T03:44:43;100108.50;;;10.41;85.13
72892;BME280;61032;50.782;6.818;2023-11-21T03:45:44;100115.13;;;10.40;85.37
72892;BME280;61032;50.782;6.818;2023-11-21T03:46:44;100116.53;;;10.46;84.96
72892;BME280;61032;50.782;6.818;2023-11-21T03:47:45;100117.22;;;10.43;84.77
72892;BME280;61032;50.782;6.818;2023-11-21T03:48:45;100115.25;;;10.43;84.78
72892;BME280;61032;50.782;6.818;2023-11-21T03:49:45;100114.94;;;10.45;85.09
72892;BME280;61032;50.782;6.818;2023-11-21T03:50:46;100118.94;;;10.47;84.99
72892;BME280;61032;50.782;6.818;2023-11-21T03:51:47;100116.88;;;10.44;85.53
72892;BME280;61032;50.782;6.818;2023-11-21T03:52:48;100118.69;;;10.40;85.00
72892;BME280;61032;50.782;6.818;2023-11-21T03:53:48;100119.06;;;10.39;85.20
72892;BME280;61032;50.782;6.818;2023-11-21T03:54:48;100121.09;;;10.42;85.03
72892;BME280;61032;50.782;6.818;2023-11-21T03:55:49;100122.22;;;10.41;84.83
72892;BME280;61032;50.782;6.818;2023-11-21T03:56:50;100121.09;;;10.42;84.91
72892;BME280;61032;50.782;6.818;2023-11-21T03:57:50;100128.53;;;10.41;84.82
72892;BME280;61032;50.782;6.818;2023-11-21T03:58:51;100139.19;;;10.43;84.41
72892;BME280;61032;50.782;6.818;2023-11-21T03:59:51;100124.66;;;10.42;84.42
72892;BME280;61032;50.782;6.818;2023-11-21T04:00:52;100134.38;;;10.40;84.89
72892;BME280;61032;50.782;6.818;2023-11-21T04:01:55;100120.41;;;10.45;84.38
72892;BME280;61032;50.782;6.818;2023-11-21T04:02:55;100125.38;;;10.51;84.14
72892;BME280;61032;50.782;6.818;2023-11-21T04:03:56;100127.59;;;10.58;83.86
72892;BME280;61032;50.782;6.818;2023-11-21T04:04:57;100138.78;;;10.53;83.66
72892;BME280;61032;50.782;6.818;2023-11-21T04:05:57;100132.56;;;10.44;83.65
72892;BME280;61032;50.782;6.818;2023-11-21T04:06:58;100138.72;;;10.41;84.41
72892;BME280;61032;50.782;6.818;2023-11-21T04:07:58;100133.22;;;10.41;84.51
72892;BME280;61032;50.782;6.818;2023-11-21T04:08:58;100142.63;;;10.40;84.38
72892;BME280;61032;50.782;6.818;2023-11-21T04:09:59;100146.63;;;10.42;84.14
72892;BME280;61032;50.782;6.818;2023-11-21T04:11:00;100148.09;;;10.40;84.00
72892;BME280;61032;50.782;6.818;2023-11-21T04:12:01;100148.56;;;10.42;84.37
72892;BME280;61032;50.782;6.818;2023-11-21T04:13:01;100149.97;;;10.48;83.92
72892;BME280;61032;50.782;6.818;2023-11-21T04:14:02;100153.88;;;10.47;84.00
72892;BME280;61032;50.782;6.818;2023-11-21T04:15:03;100151.31;;;10.42;83.42
72892;BME280;61032;50.782;6.818;2023-11-21T04:16:04;100148.38;;;10.47;83.30
72892;BME280;61032;50.782;6.818;2023-11-21T04:17:05;100156.47;;;10.43;83.49
72892;BME280;61032;50.782;6.818;2023-11-21T04:18:05;100169.75;;;10.41;83.53
72892;BME280;61032;50.782;6.818;2023-11-21T04:19:05;100161.84;;;10.40;83.61
72892;BME280;61032;50.782;6.818;2023-11-21T04:20:07;100154.34;;;10.49;83.61
72892;BME280;61032;50.782;6.818;2023-11-21T04:21:09;100158.75;;;10.41;83.42
72892;BME280;61032;50.782;6.818;2023-11-21T04:22:09;100163.13;;;10.42;83.27
72892;BME280;61032;50.782;6.818;2023-11-21T04:23:09;100152.72;;;10.48;83.71
72892;BME280;61032;50.782;6.818;2023-11-21T04:24:10;100160.97;;;10.48;83.39
72892;BME280;61032;50.782;6.818;2023-11-21T04:25:11;100158.22;;;10.48;83.18
72892;BME280;61032;50.782;6.818;2023-11-21T04:26:12;100160.03;;;10.44;83.39
72892;BME280;61032;50.782;6.818;2023-11-21T04:27:12;100155.69;;;10.43;83.06
72892;BME280;61032;50.782;6.818;2023-11-21T04:28:13;100160.28;;;10.39;83.55
72892;BME280;61032;50.782;6.818;2023-11-21T04:29:13;100157.06;;;10.37;83.66
72892;BME280;61032;50.782;6.818;2023-11-21T04:30:14;100162.53;;;10.37;84.21
72892;BME280;61032;50.782;6.818;2023-11-21T04:31:15;100159.00;;;10.36;83.71
72892;BME280;61032;50.782;6.818;2023-11-21T04:32:15;100161.59;;;10.32;84.16
72892;BME280;61032;50.782;6.818;2023-11-21T04:33:16;100164.81;;;10.35;84.00
72892;BME280;61032;50.782;6.818;2023-11-21T04:34:16;100158.84;;;10.32;84.01
72892;BME280;61032;50.782;6.818;2023-11-21T04:35:17;100160.66;;;10.28;84.40
72892;BME280;61032;50.782;6.818;2023-11-21T04:36:17;100156.31;;;10.27;84.96
72892;BME280;61032;50.782;6.818;2023-11-21T04:37:17;100162.47;;;10.24;84.65
72892;BME280;61032;50.782;6.818;2023-11-21T04:38:18;100154.69;;;10.26;84.57
72892;BME280;61032;50.782;6.818;2023-11-21T04:39:19;100157.06;;;10.37;83.81
72892;BME280;61032;50.782;6.818;2023-11-21T04:40:20;100164.81;;;10.35;83.68
72892;BME280;61032;50.782;6.818;2023-11-21T04:41:20;100165.50;;;10.31;83.89
72892;BME280;61032;50.782;6.818;2023-11-21T04:42:21;100168.72;;;10.33;84.06
72892;BME280;61032;50.782;6.818;2023-11-21T04:43:21;100161.75;;;10.36;84.09
72892;BME280;61032;50.782;6.818;2023-11-21T04:44:22;100160.00;;;10.31;83.54
72892;BME280;61032;50.782;6.818;2023-11-21T04:45:22;100163.88;;;10.30;84.12
72892;BME280;61032;50.782;6.818;2023-11-21T04:46:23;100164.81;;;10.35;83.50
72892;BME280;61032;50.782;6.818;2023-11-21T04:47:23;100161.59;;;10.32;83.79
72892;BME280;61032;50.782;6.818;2023-11-21T04:48:23;100168.44;;;10.26;84.19
72892;BME280;61032;50.782;6.818;2023-11-21T04:49:24;100171.84;;;10.23;84.29
72892;BME280;61032;50.782;6.818;2023-11-21T04:50:24;100168.31;;;10.23;84.64
72892;BME280;61032;50.782;6.818;2023-11-21T04:51:27;100167.50;;;10.22;84.68
72892;BME280;61032;50.782;6.818;2023-11-21T04:52:27;100173.47;;;10.24;84.73
72892;BME280;61032;50.782;6.818;2023-11-21T04:53:27;100172.66;;;10.24;84.64
72892;BME280;61032;50.782;6.818;2023-11-21T04:54:28;100168.97;;;10.20;84.72
72892;BME280;61032;50.782;6.818;2023-11-21T04:55:29;100170.56;;;10.21;84.67
72892;BME280;61032;50.782;6.818;2023-11-21T04:56:29;100167.50;;;10.22;84.98
72892;BME280;61032;50.782;6.818;2023-11-21T04:57:29;100172.84;;;10.19;85.20
72892;BME280;61032;50.782;6.818;2023-11-21T04:58:30;100165.13;;;10.12;85.35
72892;BME280;61032;50.782;6.818;2023-11-21T04:59:30;100170.97;;;10.11;85.08
72892;BME280;61032;50.782;6.818;2023-11-21T05:00:31;100172.44;;;10.08;85.92
72892;BME280;61032;50.782;6.818;2023-11-21T05:01:31;100180.00;;;10.11;85.71
72892;BME280;61032;50.782;6.818;2023-11-21T05:02:32;100169.97;;;10.15;85.75
72892;BME280;61032;50.782;6.818;2023-11-21T05:03:34;100172.19;;;10.22;85.08
72892;BME280;61032;50.782;6.818;2023-11-21T05:04:34;100179.34;;;10.14;85.68
72892;BME280;61032;50.782;6.818;2023-11-21T05:05:35;100168.41;;;10.06;85.36
72892;BME280;61032;50.782;6.818;2023-11-21T05:06:35;100165.53;;;10.02;85.64
72892;BME280;61032;50.782;6.818;2023-11-21T05:07:35;100172.97;;;10.02;85.50
72892;BME280;61032;50.782;6.818;2023-11-21T05:08:36;100176.19;;;10.04;86.08
72892;BME280;61032;50.782;6.818;2023-11-21T05:09:41;100167.59;;;10.05;85.61
72892;BME280;61032;50.782;6.818;2023-11-21T05:10:41;100173.91;;;10.06;85.66
72892;BME280;61032;50.782;6.818;2023-11-21T05:11:41;100176.00;;;10.09;85.16
72892;BME280;61032;50.782;6.818;2023-11-21T05:12:42;100173.75;;;10.02;85.73
72892;BME280;61032;50.782;6.818;2023-11-21T05:13:42;100177.78;;;10.05;85.88
72892;BME280;61032;50.782;6.818;2023-11-21T05:14:43;100170.22;;;10.02;85.59
72892;BME280;61032;50.782;6.818;2023-11-21T05:15:44;100176.50;;;10.02;85.59
72892;BME280;61032;50.782;6.818;2023-11-21T05:16:44;100180.22;;;10.06;86.18
72892;BME280;61032;50.782;6.818;2023-11-21T05:17:45;100182.63;;;10.08;86.07
72892;BME280;61032;50.782;6.818;2023-11-21T05:18:45;100183.28;;;10.05;85.45